Time;durP1;ratioP1;P1;durP2;ratioP2;P2;SDS_P1;SDS_P2;PMS_P1;PMS_P2;Temp;Humidity;BMP_temperature;BMP_pressure;BME280_temperature;BME280_humidity;BME280_pressure;Samples;Min_cycle;Max_cycle;Signal;HPM_P1;HPM_P2
2023/05/07 00:01:37;;;;;;;0.40;0.30;;;;;;;13.39;81.93;95530.31;5045208;28;20437;-60
2023/05/07 00:04:05;;;;;;;1.10;0.50;;;;;;;12.81;85.30;95532.13;5071303;28;20446;-60
2023/05/07 00:06:34;;;;;;;0.63;0.60;;;;;;;12.48;90.05;95539.00;5071012;28;20433;-60
2023/05/07 00:09:03;;;;;;;0.30;0.30;;;;;;;12.63;91.83;95536.22;5070784;28;20946;-60
2023/05/07 00:11:31;;;;;;;0.50;0.30;;;;;;;12.75;90.49;95538.53;5071182;28;20448;-60
2023/05/07 00:14:02;;;;;;;1.23;0.57;;;;;;;12.88;88.66;95534.44;5071665;28;20481;-60
2023/05/07 00:16:31;;;;;;;0.30;0.20;;;;;;;12.98;86.50;95537.84;5071419;28;20981;-60
2023/05/07 00:19:00;;;;;;;0.30;0.20;;;;;;;13.17;85.41;95543.31;5071023;28;20443;-60
2023/05/07 00:21:28;;;;;;;0.50;0.40;;;;;;;12.79;90.10;95544.91;5071441;28;20443;-60
2023/05/07 00:23:56;;;;;;;0.77;0.77;;;;;;;12.65;91.98;95538.59;5070725;28;20497;-60
2023/05/07 00:26:25;;;;;;;0.40;0.40;;;;;;;12.26;96.70;95545.75;5071146;28;20465;-60
2023/05/07 00:28:53;;;;;;;0.30;0.27;;;;;;;12.33;95.94;95531.09;5070989;28;20973;-60
2023/05/07 00:31:21;;;;;;;0.73;0.30;;;;;;;12.73;94.87;95538.81;5071084;28;20453;-60
2023/05/07 00:33:51;;;;;;;0.40;0.30;;;;;;;12.83;93.46;95537.16;5070448;28;20477;-60
2023/05/07 00:36:19;;;;;;;0.50;0.50;;;;;;;12.74;93.67;95543.09;5071637;28;20433;-60
2023/05/07 00:38:48;;;;;;;0.60;0.40;;;;;;;12.39;98.38;95551.28;5071108;28;20448;-60
2023/05/07 00:41:16;;;;;;;0.30;0.20;;;;;;;12.34;100.00;95539.88;5071198;28;20461;-60
2023/05/07 00:43:45;;;;;;;0.70;0.47;;;;;;;12.55;97.65;95534.16;5070805;28;20469;-60
2023/05/07 00:46:15;;;;;;;0.40;0.40;;;;;;;12.70;95.60;95538.56;5071396;28;20995;-60
2023/05/07 00:48:44;;;;;;;0.57;0.57;;;;;;;12.83;93.56;95539.81;5071034;28;20445;-60
2023/05/07 00:51:14;;;;;;;0.50;0.30;;;;;;;12.87;91.79;95544.31;5071180;28;20820;-60
2023/05/07 00:53:42;;;;;;;0.40;0.30;;;;;;;12.90;91.34;95548.28;5070846;28;20628;-60
2023/05/07 00:56:11;;;;;;;0.40;0.30;;;;;;;12.69;92.00;95537.81;5074166;28;20524;-61
2023/05/07 00:58:39;;;;;;;0.40;0.30;;;;;;;12.72;92.14;95555.84;5074311;28;20440;-60
2023/05/07 01:01:07;;;;;;;0.40;0.33;;;;;;;12.21;97.05;95559.88;5074227;28;20997;-60
2023/05/07 01:03:36;;;;;;;0.47;0.40;;;;;;;12.26;97.20;95561.72;5074418;28;20441;-60
2023/05/07 01:06:08;;;;;;;1.03;0.50;;;;;;;12.44;94.55;95545.13;5074022;28;20449;-60
2023/05/07 01:08:39;;;;;;;0.40;0.30;;;;;;;12.33;94.56;95557.69;5074338;28;20934;-60
2023/05/07 01:11:08;;;;;;;0.40;0.30;;;;;;;12.11;99.66;95559.91;5074153;28;20438;-60
2023/05/07 01:13:37;;;;;;;0.30;0.30;;;;;;;12.39;97.57;95559.25;5074344;28;20465;-60
2023/05/07 01:16:07;;;;;;;0.40;0.30;;;;;;;12.45;98.12;95555.47;5073984;28;20445;-60
2023/05/07 01:18:35;;;;;;;0.30;0.30;;;;;;;12.52;96.01;95550.66;5074477;28;20965;-60
2023/05/07 01:21:05;;;;;;;0.40;0.30;;;;;;;12.64;94.17;95553.00;5074204;28;20880;-60
2023/05/07 01:23:36;;;;;;;0.43;0.40;;;;;;;12.43;92.77;95533.72;5074102;28;20946;-60
2023/05/07 01:26:04;;;;;;;0.37;0.27;;;;;;;12.59;92.99;95556.47;5048821;28;20491;-60
2023/05/07 01:28:33;;;;;;;0.40;0.30;;;;;;;12.51;94.80;95574.88;5074052;28;20517;-60
2023/05/07 01:31:04;;;;;;;0.30;0.20;;;;;;;12.54;94.96;95567.16;5072602;28;20433;-60
2023/05/07 01:33:35;;;;;;;0.40;0.30;;;;;;;12.47;95.34;95566.63;5073881;28;20469;-60
2023/05/07 01:36:06;;;;;;;0.40;0.30;;;;;;;12.51;96.08;95570.34;5074019;28;20452;-60
2023/05/07 01:38:37;;;;;;;0.33;0.23;;;;;;;12.57;94.21;95571.91;5074000;28;20448;-60
2023/05/07 01:41:06;;;;;;;0.60;0.60;;;;;;;11.75;100.00;95575.19;5073958;28;21020;-60
2023/05/07 01:43:34;;;;;;;1.37;1.37;;;;;;;11.59;100.00;95575.44;5073691;28;20571;-60
2023/05/07 01:46:04;;;;;;;0.50;0.40;;;;;;;11.51;100.00;95581.31;5074031;28;20445;-60
2023/05/07 01:48:34;;;;;;;1.17;1.17;;;;;;;11.55;100.00;95571.75;5074049;28;20434;-60
2023/05/07 01:51:03;;;;;;;0.40;0.30;;;;;;;11.59;100.00;95573.59;5073791;28;20473;-60
2023/05/07 01:53:38;;;;;;;1.27;0.57;;;;;;;11.55;100.00;95582.38;5073841;28;20448;-60
2023/05/07 01:56:07;;;;;;;0.40;0.33;;;;;;;11.79;100.00;95573.56;5073558;28;20441;-60
2023/05/07 01:58:35;;;;;;;0.40;0.30;;;;;;;12.02;100.00;95564.19;5073658;28;20450;-60
2023/05/07 02:01:03;;;;;;;0.37;0.23;;;;;;;12.25;100.00;95560.91;5073873;28;20442;-60
2023/05/07 02:03:32;;;;;;;0.30;0.20;;;;;;;12.31;98.64;95557.16;5073529;28;20442;-60
2023/05/07 02:06:01;;;;;;;0.60;0.40;;;;;;;12.27;98.90;95556.09;5072238;28;20460;-60
2023/05/07 02:08:29;;;;;;;0.40;0.30;;;;;;;12.35;97.48;95554.75;5073611;28;20433;-60
2023/05/07 02:10:59;;;;;;;0.30;0.20;;;;;;;12.36;97.41;95556.34;5072812;28;20517;-60
2023/05/07 02:13:30;;;;;;;0.30;0.20;;;;;;;12.37;96.00;95561.38;5073876;28;20448;-60
2023/05/07 02:15:58;;;;;;;0.40;0.30;;;;;;;12.37;95.31;95556.06;5072951;28;20527;-60
2023/05/07 02:18:27;;;;;;;0.30;0.20;;;;;;;12.07;94.88;95508.38;5072987;28;20438;-60
2023/05/07 02:20:55;;;;;;;0.40;0.30;;;;;;;11.97;94.43;95506.56;5073072;28;20437;-60
2023/05/07 02:23:24;;;;;;;0.40;0.33;;;;;;;11.86;98.49;95525.50;5073529;28;20444;-60
2023/05/07 02:25:52;;;;;;;0.40;0.30;;;;;;;11.95;100.00;95566.34;5072556;28;20465;-60
2023/05/07 02:28:22;;;;;;;0.40;0.30;;;;;;;11.45;100.00;95568.06;5072772;28;21028;-60
2023/05/07 02:30:50;;;;;;;0.63;0.63;;;;;;;11.69;100.00;95567.50;5072635;28;20430;-60
2023/05/07 02:33:19;;;;;;;0.60;0.37;;;;;;;11.87;100.00;95564.25;5072790;28;20442;-60
2023/05/07 02:35:47;;;;;;;0.90;0.40;;;;;;;11.85;100.00;95569.03;5072008;28;21245;-60
2023/05/07 02:38:15;;;;;;;0.70;0.30;;;;;;;11.87;100.00;95562.41;5071687;28;20449;-60
2023/05/07 02:40:44;;;;;;;0.60;0.57;;;;;;;12.08;100.00;95569.22;5060398;28;20448;-60
2023/05/07 02:43:12;;;;;;;0.33;0.27;;;;;;;12.09;100.00;95562.84;5072350;28;20443;-60
2023/05/07 02:45:43;;;;;;;0.40;0.30;;;;;;;12.16;99.20;95556.44;5072356;28;20574;-60
2023/05/07 02:48:11;;;;;;;0.60;0.40;;;;;;;11.97;99.08;95542.97;5072039;28;20438;-60
2023/05/07 02:50:39;;;;;;;0.80;0.80;;;;;;;11.92;100.00;95569.53;5072696;28;20445;-61
2023/05/07 02:53:08;;;;;;;0.70;0.43;;;;;;;11.68;100.00;95560.56;5072533;28;20469;-60
2023/05/07 02:55:36;;;;;;;0.50;0.33;;;;;;;11.10;100.00;95565.44;5072471;28;20877;-60
2023/05/07 02:58:04;;;;;;;0.50;0.50;;;;;;;11.36;100.00;95561.69;5072252;28;20457;-60
2023/05/07 03:00:33;;;;;;;0.40;0.30;;;;;;;11.62;100.00;95558.97;5072037;28;20448;-60
2023/05/07 03:03:02;;;;;;;1.37;0.30;;;;;;;11.62;100.00;95556.31;5072061;28;20469;-60
2023/05/07 03:05:31;;;;;;;0.50;0.40;;;;;;;11.71;100.00;95560.88;5072452;28;20437;-60
2023/05/07 03:07:59;;;;;;;0.60;0.60;;;;;;;11.78;100.00;95557.91;5071603;28;20445;-59
2023/05/07 03:10:28;;;;;;;0.40;0.40;;;;;;;11.87;100.00;95565.06;5072346;28;20476;-60
2023/05/07 03:12:56;;;;;;;0.43;0.43;;;;;;;11.84;100.00;95562.94;5071814;28;20978;-59
2023/05/07 03:15:24;;;;;;;0.30;0.20;;;;;;;11.84;100.00;95559.50;5072465;28;20476;-60
2023/05/07 03:17:52;;;;;;;0.40;0.30;;;;;;;11.80;100.00;95550.47;5072299;28;20438;-59
2023/05/07 03:20:22;;;;;;;0.40;0.40;;;;;;;11.37;100.00;95477.56;5071639;28;20441;-59
2023/05/07 03:22:50;;;;;;;0.40;0.30;;;;;;;11.85;100.00;95558.41;5072095;28;20433;-60
2023/05/07 03:25:19;;;;;;;0.37;0.33;;;;;;;11.87;100.00;95564.25;5071598;28;20489;-59
2023/05/07 03:27:47;;;;;;;0.40;0.30;;;;;;;11.74;100.00;95570.94;5071440;28;20519;-59
2023/05/07 03:30:16;;;;;;;0.40;0.40;;;;;;;10.70;100.00;95493.84;5072009;28;20525;-59
2023/05/07 03:32:44;;;;;;;0.43;0.33;;;;;;;11.36;100.00;95577.59;5071560;28;20520;-59
2023/05/07 03:35:12;;;;;;;0.50;0.50;;;;;;;11.44;100.00;95584.22;5071863;28;20473;-59
2023/05/07 03:37:42;;;;;;;0.57;0.57;;;;;;;11.51;100.00;95584.75;5071374;28;20437;-58
2023/05/07 03:40:12;;;;;;;0.50;0.30;;;;;;;11.60;100.00;95559.25;5070951;28;20958;-59
2023/05/07 03:42:41;;;;;;;0.40;0.30;;;;;;;11.76;100.00;95575.97;5071532;28;20540;-59
2023/05/07 03:45:10;;;;;;;0.40;0.30;;;;;;;11.76;100.00;95581.28;5071777;28;20541;-59
2023/05/07 03:47:38;;;;;;;1.50;1.50;;;;;;;11.78;100.00;95573.84;5071523;28;20445;-59
2023/05/07 03:50:07;;;;;;;0.40;0.30;;;;;;;11.85;100.00;95584.97;5071167;28;20445;-59
2023/05/07 03:52:35;;;;;;;0.53;0.50;;;;;;;11.83;100.00;95579.94;5070997;28;20437;-59
2023/05/07 03:55:06;;;;;;;0.63;0.40;;;;;;;11.84;100.00;95589.50;5071372;28;20469;-59
2023/05/07 03:57:35;;;;;;;0.40;0.30;;;;;;;11.86;100.00;95583.91;5070849;28;20537;-59
2023/05/07 04:00:04;;;;;;;0.50;0.40;;;;;;;11.86;100.00;95581.25;5071172;28;20500;-59
2023/05/07 04:02:33;;;;;;;0.57;0.50;;;;;;;11.91;100.00;95573.28;5070997;28;20438;-59
2023/05/07 04:05:02;;;;;;;0.70;0.70;;;;;;;11.97;100.00;95585.47;5071404;28;20464;-59
2023/05/07 04:07:30;;;;;;;0.60;0.50;;;;;;;11.95;100.00;95591.06;5070851;28;20436;-60
2023/05/07 04:09:58;;;;;;;1.10;1.00;;;;;;;12.02;100.00;95583.59;5071068;28;20445;-59
2023/05/07 04:12:28;;;;;;;0.50;0.43;;;;;;;12.09;100.00;95578.00;5070992;28;20442;-59
2023/05/07 04:14:56;;;;;;;0.70;0.70;;;;;;;12.18;100.00;95581.66;5071457;28;20513;-59
2023/05/07 04:17:25;;;;;;;0.93;0.30;;;;;;;12.26;99.97;95586.44;5070958;28;20473;-60
2023/05/07 04:19:53;;;;;;;0.67;0.60;;;;;;;12.29;99.51;95590.41;5071184;28;20448;-59
2023/05/07 04:22:21;;;;;;;0.40;0.20;;;;;;;12.37;99.14;95593.28;5070767;28;20820;-60
2023/05/07 04:24:50;;;;;;;0.93;0.93;;;;;;;12.54;97.54;95593.75;5070767;28;20516;-60
2023/05/07 04:27:18;;;;;;;2.40;0.43;;;;;;;12.01;99.84;95539.50;5069946;28;20480;-60
2023/05/07 04:29:48;;;;;;;0.50;0.50;;;;;;;12.05;100.00;95595.53;5071873;28;20452;-60
2023/05/07 04:32:17;;;;;;;0.90;0.60;;;;;;;12.36;100.00;95590.91;5074761;28;20854;-60
2023/05/07 04:34:45;;;;;;;0.50;0.50;;;;;;;12.57;100.00;95593.16;5075009;28;20437;-59
2023/05/07 04:37:14;;;;;;;0.50;0.40;;;;;;;12.72;100.00;95595.72;5074176;28;20586;-59
2023/05/07 04:39:42;;;;;;;0.30;0.30;;;;;;;12.57;100.00;95603.03;5074557;28;20435;-59
2023/05/07 04:42:15;;;;;;;3.43;1.07;;;;;;;12.23;100.00;95605.56;5048243;28;20440;-59
2023/05/07 04:44:44;;;;;;;0.50;0.50;;;;;;;12.64;100.00;95606.19;5075076;28;20445;-59
2023/05/07 04:47:14;;;;;;;0.40;0.30;;;;;;;12.78;100.00;95596.50;5074501;28;20445;-59
2023/05/07 04:49:43;;;;;;;0.60;0.60;;;;;;;12.51;100.00;95598.78;5074868;28;20523;-59
2023/05/07 04:52:11;;;;;;;0.90;0.90;;;;;;;12.41;100.00;95594.31;5074595;28;20946;-59
2023/05/07 04:54:39;;;;;;;1.23;0.80;;;;;;;12.72;100.00;95598.41;5073908;28;20482;-59
2023/05/07 04:57:08;;;;;;;5.30;0.43;;;;;;;13.10;100.00;95590.75;5074711;28;20564;-60
2023/05/07 04:59:36;;;;;;;2.10;1.03;;;;;;;12.29;100.00;95596.53;5074334;28;20938;-59
2023/05/07 05:02:05;;;;;;;0.60;0.50;;;;;;;12.38;100.00;95596.72;5074147;28;20455;-59
2023/05/07 05:04:34;;;;;;;2.30;1.53;;;;;;;12.43;100.00;95594.84;5074061;28;20455;-59
2023/05/07 05:07:04;;;;;;;1.07;1.00;;;;;;;12.63;100.00;95602.72;5073928;28;20437;-58
2023/05/07 05:09:32;;;;;;;0.60;0.50;;;;;;;12.92;100.00;95602.00;5073849;28;20480;-58
2023/05/07 05:12:14;;;;;;;2.90;1.87;;;;;;;12.60;100.00;95603.25;5074624;28;20863;-59
2023/05/07 05:14:42;;;;;;;0.60;0.60;;;;;;;12.57;100.00;95579.88;5074635;28;20437;-58
2023/05/07 05:17:16;;;;;;;1.40;1.30;;;;;;;12.43;100.00;95578.09;5074248;28;20560;-58
2023/05/07 05:19:46;;;;;;;1.93;1.83;;;;;;;12.37;100.00;95603.91;5073974;28;20437;-58
2023/05/07 05:22:14;;;;;;;0.67;0.47;;;;;;;12.39;100.00;95599.13;5073643;28;20965;-58
2023/05/07 05:24:42;;;;;;;9.50;1.03;;;;;;;13.03;100.00;95588.34;5074400;28;20878;-57
2023/05/07 05:27:11;;;;;;;2.43;0.97;;;;;;;13.08;100.00;95588.34;5073828;28;20466;-58
2023/05/07 05:29:39;;;;;;;12.53;0.60;;;;;;;13.23;99.65;95595.44;5074299;28;20443;-58
2023/05/07 05:32:07;;;;;;;5.30;1.00;;;;;;;13.10;100.00;95598.72;5073737;28;20441;-59
2023/05/07 05:34:35;;;;;;;0.40;0.40;;;;;;;13.49;98.45;95594.13;5073964;28;20438;-60
2023/05/07 05:37:05;;;;;;;0.50;0.40;;;;;;;13.59;96.20;95591.38;5073387;28;20557;-60
2023/05/07 05:39:34;;;;;;;4.43;0.50;;;;;;;12.79;99.73;95544.09;5073664;28;20438;-60
2023/05/07 05:42:02;;;;;;;1.10;1.10;;;;;;;13.34;100.00;95595.06;5072173;28;20441;-59
2023/05/07 05:44:30;;;;;;;1.73;1.70;;;;;;;14.06;97.24;95595.97;5073330;28;20825;-59
2023/05/07 05:46:59;;;;;;;4.90;0.70;;;;;;;13.78;96.32;95596.78;5073611;28;20441;-60
2023/05/07 05:49:27;;;;;;;1.33;1.23;;;;;;;14.18;96.24;95592.88;5072757;28;20433;-61
2023/05/07 05:51:55;;;;;;;0.83;0.83;;;;;;;14.17;96.79;95585.94;5059461;28;20449;-61
2023/05/07 05:54:25;;;;;;;0.37;0.30;;;;;;;14.77;93.39;95587.88;5073232;28;20533;-60
2023/05/07 05:56:53;;;;;;;0.80;0.80;;;;;;;14.33;94.70;95598.84;5073748;28;20483;-61
2023/05/07 05:59:22;;;;;;;1.70;0.70;;;;;;;14.63;95.29;95592.34;5073380;28;20495;-61
2023/05/07 06:01:50;;;;;;;1.60;0.40;;;;;;;15.08;90.00;95594.34;5073562;28;20434;-60
2023/05/07 06:04:19;;;;;;;0.90;0.77;;;;;;;14.98;88.36;95599.84;5072718;28;20441;-60
2023/05/07 06:06:47;;;;;;;0.70;0.70;;;;;;;14.97;88.76;95590.25;5072770;28;20445;-60
2023/05/07 06:09:15;;;;;;;0.60;0.60;;;;;;;15.24;84.53;95587.69;5073211;28;20441;-62
2023/05/07 06:11:45;;;;;;;1.67;1.40;;;;;;;15.10;82.03;95586.84;5071858;28;20532;-62
2023/05/07 06:14:13;;;;;;;0.70;0.60;;;;;;;15.09;82.68;95539.06;5071795;28;20459;-61
2023/05/07 06:16:42;;;;;;;0.70;0.63;;;;;;;16.02;80.08;95573.53;5072937;28;20552;-62
2023/05/07 06:19:10;;;;;;;1.03;1.00;;;;;;;15.94;78.64;95590.25;5072952;28;20434;-62
2023/05/07 06:21:40;;;;;;;1.27;1.17;;;;;;;16.18;78.69;95593.53;5072846;28;21013;-63
2023/05/07 06:24:08;;;;;;;1.47;1.20;;;;;;;16.84;75.91;95586.84;5072383;28;20470;-63
2023/05/07 06:26:37;;;;;;;0.60;0.50;;;;;;;17.15;73.60;95580.47;5072475;28;20501;-64
2023/05/07 06:29:07;;;;;;;1.50;1.40;;;;;;;16.65;74.29;95586.16;5071103;28;20438;-63
2023/05/07 06:31:35;;;;;;;0.60;0.50;;;;;;;16.55;73.03;95591.75;5073016;28;20438;-64
2023/05/07 06:34:04;;;;;;;1.13;0.60;;;;;;;17.40;73.10;95571.06;5072088;28;20437;-63
2023/05/07 06:36:33;;;;;;;0.40;0.40;;;;;;;18.02;69.42;95573.75;5072087;28;20473;-62
2023/05/07 06:39:01;;;;;;;0.60;0.50;;;;;;;18.29;66.37;95557.47;5073051;28;20516;-64
2023/05/07 06:41:29;;;;;;;52.83;1.37;;;;;;;17.82;67.68;95550.97;5071437;28;20479;-64
2023/05/07 06:43:57;;;;;;;0.43;0.30;;;;;;;18.71;66.03;95556.78;5071341;28;21117;-65
2023/05/07 06:46:28;;;;;;;2.00;0.83;;;;;;;19.44;63.70;95558.53;5057431;28;20460;-64
2023/05/07 06:48:57;;;;;;;0.60;0.40;;;;;;;19.43;63.34;95548.88;5070718;28;20445;-64
2023/05/07 06:51:25;;;;;;;0.70;0.70;;;;;;;19.72;64.26;95550.88;5070136;28;20519;-63
2023/05/07 06:53:53;;;;;;;0.57;0.57;;;;;;;20.32;62.43;95553.34;5070324;28;20476;-61
2023/05/07 06:56:22;;;;;;;0.60;0.50;;;;;;;20.36;61.48;95550.81;5071300;28;20517;-61
2023/05/07 06:58:50;;;;;;;0.50;0.50;;;;;;;20.09;61.65;95557.38;5071395;28;20794;-61
2023/05/07 07:01:19;;;;;;;0.47;0.43;;;;;;;20.60;60.56;95542.91;5071621;28;20483;-61
2023/05/07 07:03:51;;;;;;;1.20;1.20;;;;;;;20.71;58.75;95544.09;5071910;28;20529;-63
2023/05/07 07:06:19;;;;;;;1.03;0.93;;;;;;;20.78;60.34;95550.53;5071749;28;20488;-64
2023/05/07 07:08:48;;;;;;;0.53;0.47;;;;;;;21.19;58.94;95551.69;5072158;28;20516;-65
2023/05/07 07:11:16;;;;;;;10.03;0.50;;;;;;;21.61;57.30;95542.41;5071963;28;20445;-65
2023/05/07 07:13:45;;;;;;;0.50;0.40;;;;;;;21.86;56.20;95543.25;5072007;28;20528;-66
2023/05/07 07:16:13;;;;;;;0.83;0.70;;;;;;;21.75;55.23;95537.50;5071796;28;20437;-66
2023/05/07 07:18:41;;;;;;;0.80;0.80;;;;;;;21.32;55.02;95473.22;5071736;28;20477;-63
2023/05/07 07:21:11;;;;;;;0.60;0.60;;;;;;;22.00;53.52;95532.94;5071850;28;20986;-64
2023/05/07 07:23:40;;;;;;;0.50;0.47;;;;;;;21.95;53.37;95522.38;5071865;28;20437;-63
2023/05/07 07:26:08;;;;;;;0.57;0.50;;;;;;;21.90;53.83;95522.59;5071824;28;20509;-63
2023/05/07 07:28:42;;;;;;;0.40;0.40;;;;;;;23.06;52.49;95526.22;5069866;28;20445;-63
2023/05/07 07:31:14;;;;;;;1.00;0.90;;;;;;;22.94;50.46;95526.28;5062319;28;20452;-65
2023/05/07 07:33:42;;;;;;;0.50;0.50;;;;;;;22.49;52.10;95526.41;5071943;28;20513;-66
2023/05/07 07:36:12;;;;;;;0.40;0.30;;;;;;;23.02;51.13;95524.56;5071854;28;20442;-68
2023/05/07 07:38:40;;;;;;;1.10;0.40;;;;;;;22.74;50.98;95492.84;5071490;28;20473;-70
2023/05/07 07:41:09;;;;;;;1.50;0.40;;;;;;;23.37;50.91;95525.59;5072262;28;20438;-71
2023/05/07 07:43:37;;;;;;;0.87;0.87;;;;;;;22.71;51.83;95531.38;5071562;28;20429;-72
2023/05/07 07:46:05;;;;;;;0.40;0.40;;;;;;;22.99;50.38;95514.44;5071511;28;20473;-73
2023/05/07 07:48:34;;;;;;;0.63;0.50;;;;;;;23.49;50.29;95532.84;5071398;28;20962;-72
2023/05/07 07:51:02;;;;;;;0.47;0.47;;;;;;;24.23;49.63;95529.38;5071891;28;20465;-69
2023/05/07 07:53:32;;;;;;;0.60;0.60;;;;;;;23.94;48.55;95530.56;5045630;28;20473;-71
2023/05/07 07:56:00;;;;;;;0.50;0.40;;;;;;;24.51;47.99;95524.63;5071508;28;20866;-69
2023/05/07 07:58:32;;;;;;;1.27;1.17;;;;;;;24.61;46.71;95524.09;5071482;28;20508;-70
2023/05/07 08:01:00;;;;;;;0.50;0.40;;;;;;;25.72;45.38;95524.09;5071125;28;20907;-69
2023/05/07 08:03:31;;;;;;;0.60;0.43;;;;;;;25.27;45.16;95517.75;5070688;28;20487;-70
2023/05/07 08:06:00;;;;;;;0.40;0.30;;;;;;;25.44;46.31;95514.59;5071218;28;20795;-72
2023/05/07 08:08:28;;;;;;;0.60;0.50;;;;;;;24.27;46.12;95503.94;5071783;28;20434;-72
2023/05/07 08:10:57;;;;;;;1.83;0.63;;;;;;;24.40;46.01;95512.75;5071519;28;20438;-71
2023/05/07 08:13:26;;;;;;;0.80;0.80;;;;;;;24.24;47.63;95498.41;5071533;28;20473;-71
2023/05/07 08:15:55;;;;;;;0.90;0.37;;;;;;;25.41;45.17;95494.38;5071310;28;20533;-70
2023/05/07 08:18:24;;;;;;;0.53;0.40;;;;;;;25.68;44.26;95381.25;5071314;28;20836;-68
2023/05/07 08:20:53;;;;;;;0.40;0.30;;;;;;;26.29;43.18;95492.47;5071291;28;20469;-68
2023/05/07 08:23:21;;;;;;;0.90;0.90;;;;;;;26.12;44.01;95463.09;5071749;28;20504;-67
2023/05/07 08:25:51;;;;;;;0.47;0.40;;;;;;;26.20;43.01;95472.94;5071328;28;20434;-67
2023/05/07 08:28:21;;;;;;;0.70;0.60;;;;;;;26.37;40.86;95472.41;5071512;28;20438;-67
2023/05/07 08:30:49;;;;;;;0.50;0.50;;;;;;;26.75;41.15;95477.63;5045142;28;20441;-67
2023/05/07 08:33:17;;;;;;;0.50;0.40;;;;;;;26.29;41.65;95468.00;5071066;28;20442;-68
2023/05/07 08:35:46;;;;;;;0.40;0.30;;;;;;;26.67;41.60;95470.50;5071141;28;20442;-70
2023/05/07 08:38:14;;;;;;;0.60;0.30;;;;;;;26.75;41.46;95465.94;5070889;28;20841;-67
2023/05/07 08:40:42;;;;;;;0.40;0.30;;;;;;;26.60;40.16;95464.19;5071241;28;20441;-68
2023/05/07 08:43:13;;;;;;;2.90;0.40;;;;;;;27.14;39.73;95461.81;5070697;28;20434;-67
2023/05/07 08:45:46;;;;;;;0.60;0.60;;;;;;;28.12;41.06;95462.06;5071426;28;20858;-67
2023/05/07 08:48:17;;;;;;;0.40;0.30;;;;;;;28.88;39.67;95454.78;5070960;28;20939;-67
2023/05/07 08:50:45;;;;;;;0.50;0.50;;;;;;;28.46;38.19;95453.75;5071364;28;20524;-68
2023/05/07 08:53:16;;;;;;;0.40;0.40;;;;;;;28.31;36.69;95452.84;5075420;28;20437;-69
2023/05/07 08:55:44;;;;;;;0.40;0.40;;;;;;;29.21;36.37;95444.81;5073488;28;20465;-70
2023/05/07 08:58:13;;;;;;;0.83;0.77;;;;;;;28.47;39.19;95408.94;5070078;28;20489;-70
2023/05/07 09:00:43;;;;;;;0.50;0.40;;;;;;;29.87;36.70;95433.28;5070878;28;21037;-70
2023/05/07 09:03:12;;;;;;;0.40;0.30;;;;;;;29.52;37.47;95430.47;5044062;28;20475;-70
2023/05/07 09:05:41;;;;;;;2.03;0.77;;;;;;;28.53;37.27;95437.41;5070542;28;20437;-69
2023/05/07 09:08:09;;;;;;;0.70;0.70;;;;;;;27.65;36.89;95438.28;5044692;28;20464;-69
2023/05/07 09:10:38;;;;;;;0.60;0.50;;;;;;;28.34;38.12;95413.94;5070852;28;20441;-68
2023/05/07 09:13:06;;;;;;;0.50;0.30;;;;;;;28.18;37.50;95395.13;5070934;28;20516;-69
2023/05/07 09:15:35;;;;;;;0.60;0.50;;;;;;;27.89;37.72;95428.75;5071857;28;20469;-69
2023/05/07 09:18:05;;;;;;;0.40;0.40;;;;;;;28.03;36.55;95426.16;5074312;28;20505;-69
2023/05/07 09:20:33;;;;;;;0.70;0.70;;;;;;;24.36;37.86;94924.78;5073648;28;20446;-68
2023/05/07 09:23:01;;;;;;;0.40;0.30;;;;;;;29.08;35.41;95380.78;5074295;28;20437;-67
2023/05/07 09:25:31;;;;;;;0.60;0.40;;;;;;;29.82;36.06;95408.28;5074009;28;20454;-68
2023/05/07 09:28:00;;;;;;;0.60;0.50;;;;;;;30.23;33.93;95400.44;5074297;28;20444;-67
2023/05/07 09:30:30;;;;;;;0.50;0.50;;;;;;;30.34;33.12;95401.97;5074082;28;20819;-68
2023/05/07 09:33:00;;;;;;;0.80;0.80;;;;;;;31.12;33.03;95399.81;5074298;28;20442;-68
2023/05/07 09:35:30;;;;;;;0.40;0.40;;;;;;;29.83;33.54;95396.19;5073809;28;20434;-67
2023/05/07 09:37:59;;;;;;;0.50;0.30;;;;;;;29.47;34.12;95382.44;5074022;28;20888;-66
2023/05/07 09:40:31;;;;;;;0.50;0.50;;;;;;;29.89;32.77;95380.94;5073746;28;20806;-65
2023/05/07 09:43:11;;;;;;;0.83;0.83;;;;;;;28.49;33.38;95322.09;5073723;28;20434;-64
2023/05/07 09:45:39;;;;;;;0.40;0.40;;;;;;;28.27;32.49;95400.25;5073920;28;20447;-65
2023/05/07 09:48:09;;;;;;;0.40;0.40;;;;;;;29.73;31.40;95375.84;5073921;28;20503;-65
2023/05/07 09:50:46;;;;;;;0.40;0.30;;;;;;;31.02;31.71;95370.53;5074216;28;20492;-65
2023/05/07 09:53:16;;;;;;;0.40;0.30;;;;;;;31.64;31.12;95356.88;5073270;28;20839;-64
2023/05/07 09:55:44;;;;;;;0.67;0.67;;;;;;;30.64;29.47;95376.91;5073840;28;20500;-64
2023/05/07 09:58:13;;;;;;;0.50;0.33;;;;;;;31.62;30.76;95363.94;5073424;28;20556;-63
2023/05/07 10:00:43;;;;;;;3.40;0.40;;;;;;;31.57;30.44;95345.97;5073704;28;20819;-63
2023/05/07 10:03:12;;;;;;;0.50;0.40;;;;;;;30.64;30.50;95365.97;5041188;28;20989;-64
2023/05/07 10:05:44;;;;;;;0.50;0.50;;;;;;;30.97;30.42;95365.47;5068331;28;20441;-63
2023/05/07 10:08:31;;;;;;;0.60;0.30;;;;;;;28.97;31.55;95326.16;5073014;28;20448;-65
2023/05/07 10:11:00;;;;;;;0.93;0.93;;;;;;;29.06;32.20;95364.00;5073183;28;20441;-64
2023/05/07 10:13:29;;;;;;;0.80;0.40;;;;;;;29.24;31.30;95351.22;5073042;28;20445;-63
2023/05/07 10:15:58;;;;;;;0.40;0.40;;;;;;;29.41;32.63;95356.72;5073188;28;20447;-63
2023/05/07 10:18:29;;;;;;;0.40;0.40;;;;;;;30.39;30.66;95354.34;5073292;28;20508;-63
2023/05/07 10:21:06;;;;;;;0.40;0.37;;;;;;;30.54;29.51;95329.28;5073373;28;20478;-63
2023/05/07 10:23:35;;;;;;;0.60;0.60;;;;;;;31.02;29.18;95345.13;5072585;28;20444;-62
2023/05/07 10:26:06;;;;;;;0.40;0.33;;;;;;;30.79;30.11;95318.22;5072598;28;20476;-64
2023/05/07 10:28:39;;;;;;;0.43;0.37;;;;;;;30.89;28.32;95344.75;5071976;28;20535;-64
2023/05/07 10:31:24;;;;;;;0.40;0.30;;;;;;;31.24;27.16;95333.66;5073218;28;20476;-63
2023/05/07 10:33:56;;;;;;;0.33;0.30;;;;;;;32.36;25.02;95331.16;5072843;28;20437;-63
2023/05/07 10:36:27;;;;;;;0.60;0.53;;;;;;;31.16;25.70;95329.41;5072866;28;20437;-63
2023/05/07 10:38:56;;;;;;;0.40;0.40;;;;;;;29.41;27.21;95318.47;5065817;28;20466;-64
2023/05/07 10:41:24;;;;;;;0.40;0.30;;;;;;;29.23;31.81;95328.59;5066485;28;20475;-64
2023/05/07 10:43:53;;;;;;;0.43;0.40;;;;;;;29.17;29.84;95324.66;5072653;28;20429;-64
2023/05/07 10:46:23;;;;;;;0.40;0.37;;;;;;;28.82;29.88;95319.91;5072571;28;20437;-65
2023/05/07 10:49:11;;;;;;;0.30;0.30;;;;;;;30.27;28.60;95309.03;5072666;28;20516;-65
2023/05/07 10:51:41;;;;;;;0.40;0.40;;;;;;;29.73;27.64;95323.16;5072311;28;20523;-64
2023/05/07 10:54:27;;;;;;;0.50;0.30;;;;;;;29.61;27.84;95239.66;5072227;28;20441;-65
2023/05/07 10:56:55;;;;;;;0.50;0.43;;;;;;;30.15;26.70;95312.97;5072322;28;20444;-64
2023/05/07 10:59:41;;;;;;;0.40;0.30;;;;;;;30.06;28.64;95312.59;5072333;28;20902;-64
2023/05/07 11:02:11;;;;;;;0.43;0.40;;;;;;;30.84;28.38;95281.47;5072375;28;21009;-63
2023/05/07 11:04:41;;;;;;;0.40;0.37;;;;;;;31.54;25.48;95297.47;5072167;28;20429;-63
2023/05/07 11:07:29;;;;;;;0.40;0.33;;;;;;;32.00;25.51;95297.84;5073138;28;20460;-64
2023/05/07 11:10:04;;;;;;;0.47;0.40;;;;;;;30.16;25.96;95298.13;5050164;28;20441;-65
2023/05/07 11:12:52;;;;;;;0.40;0.30;;;;;;;30.71;26.93;95262.00;5072662;28;20445;-64
2023/05/07 11:15:44;;;;;;;0.50;0.50;;;;;;;31.32;26.47;95291.31;5072574;28;20437;-64
2023/05/07 11:18:17;;;;;;;0.60;0.40;;;;;;;30.06;27.60;95298.94;5071952;28;20448;-64
2023/05/07 11:20:56;;;;;;;0.37;0.30;;;;;;;30.80;27.59;95292.41;5071891;28;20519;-64
2023/05/07 11:24:10;;;;;;;0.37;0.30;;;;;;;30.50;28.06;95294.91;5072144;28;20441;-64
2023/05/07 11:26:48;;;;;;;0.40;0.40;;;;;;;31.31;28.34;95273.34;5056405;28;20485;-64
2023/05/07 11:29:19;;;;;;;0.50;0.40;;;;;;;31.87;26.67;95287.78;5046281;28;20800;-63
2023/05/07 11:31:51;;;;;;;0.30;0.30;;;;;;;31.07;27.56;95274.28;5071823;28;20444;-64
2023/05/07 11:34:23;;;;;;;0.30;0.23;;;;;;;30.41;26.75;95289.09;5072245;28;20500;-65
2023/05/07 11:36:52;;;;;;;0.47;0.40;;;;;;;28.30;29.69;95310.31;5071794;28;21195;-65
2023/05/07 11:39:29;;;;;;;0.50;0.33;;;;;;;28.44;29.66;95301.41;5071527;28;20476;-66
2023/05/07 11:41:59;;;;;;;0.30;0.20;;;;;;;30.77;28.07;95298.69;5071931;28;20443;-64
2023/05/07 11:44:42;;;;;;;0.60;0.40;;;;;;;31.84;27.76;95305.03;5071825;28;20828;-63